sensor_id;sensor_type;location;lat;lon;timestamp;pressure;altitude;pressure_sealevel;temperature;humidity
62237;BME280;69163;48.778;2.308;2023-09-30T00:00:31;101853.29;;;19.50;45.30
62237;BME280;69163;48.778;2.308;2023-09-30T00:02:56;101854.70;;;19.48;45.28
62237;BME280;69163;48.778;2.308;2023-09-30T00:05:22;101861.22;;;19.46;45.27
62237;BME280;69163;48.778;2.308;2023-09-30T00:07:46;101864.57;;;19.72;45.19
62237;BME280;69163;48.778;2.308;2023-09-30T00:10:12;101868.10;;;19.73;45.12
62237;BME280;69163;48.778;2.308;2023-09-30T00:12:37;101869.32;;;19.48;45.11
62237;BME280;69163;48.778;2.308;2023-09-30T00:15:02;101868.53;;;19.73;45.06
62237;BME280;69163;48.778;2.308;2023-09-30T00:17:27;101870.00;;;19.20;45.06
62237;BME280;69163;48.778;2.308;2023-09-30T00:19:52;101871.77;;;19.46;45.02
62237;BME280;69163;48.778;2.308;2023-09-30T00:22:17;101866.81;;;19.69;44.99
62237;BME280;69163;48.778;2.308;2023-09-30T00:24:43;101865.14;;;19.42;44.96
62237;BME280;69163;48.778;2.308;2023-09-30T00:27:08;101871.15;;;19.68;44.95
62237;BME280;69163;48.778;2.308;2023-09-30T00:29:33;101871.46;;;19.69;44.91
62237;BME280;69163;48.778;2.308;2023-09-30T00:31:58;101873.60;;;19.63;44.98
62237;BME280;69163;48.778;2.308;2023-09-30T00:34:24;101880.55;;;19.61;44.91
62237;BME280;69163;48.778;2.308;2023-09-30T00:36:49;101874.39;;;20.02;44.96
62237;BME280;69163;48.778;2.308;2023-09-30T00:39:14;101870.29;;;19.75;44.99
62237;BME280;69163;48.778;2.308;2023-09-30T00:41:39;101868.57;;;19.54;44.92
62237;BME280;69163;48.778;2.308;2023-09-30T00:44:04;101872.49;;;19.58;44.83
62237;BME280;69163;48.778;2.308;2023-09-30T00:46:31;101871.95;;;19.63;44.71
62237;BME280;69163;48.778;2.308;2023-09-30T00:48:57;101866.38;;;19.64;44.67
62237;BME280;69163;48.778;2.308;2023-09-30T00:51:21;101853.49;;;19.61;44.67
62237;BME280;69163;48.778;2.308;2023-09-30T00:53:45;101857.94;;;19.62;44.64
62237;BME280;69163;48.778;2.308;2023-09-30T00:56:11;101862.65;;;19.61;44.60
62237;BME280;69163;48.778;2.308;2023-09-30T00:58:36;101854.14;;;19.60;44.58
62237;BME280;69163;48.778;2.308;2023-09-30T01:01:01;101845.04;;;19.57;44.60
62237;BME280;69163;48.778;2.308;2023-09-30T01:03:26;101841.92;;;19.55;44.61
62237;BME280;69163;48.778;2.308;2023-09-30T01:05:51;101836.96;;;19.60;44.50
62237;BME280;69163;48.778;2.308;2023-09-30T01:08:16;101848.80;;;19.34;44.47
62237;BME280;69163;48.778;2.308;2023-09-30T01:10:41;101864.44;;;19.35;44.44
62237;BME280;69163;48.778;2.308;2023-09-30T01:13:06;101875.80;;;19.36;44.41
62237;BME280;69163;48.778;2.308;2023-09-30T01:15:32;101875.23;;;19.55;44.47
62237;BME280;69163;48.778;2.308;2023-09-30T01:17:57;101865.51;;;19.73;44.51
62237;BME280;69163;48.778;2.308;2023-09-30T01:20:23;101860.38;;;19.51;44.49
62237;BME280;69163;48.778;2.308;2023-09-30T01:22:47;101864.41;;;19.44;44.57
62237;BME280;69163;48.778;2.308;2023-09-30T01:25:12;101869.41;;;19.40;44.62
62237;BME280;69163;48.778;2.308;2023-09-30T01:27:37;101874.68;;;19.19;44.57
62237;BME280;69163;48.778;2.308;2023-09-30T01:30:03;101880.44;;;19.40;44.61
62237;BME280;69163;48.778;2.308;2023-09-30T01:32:28;101882.99;;;19.41;44.57
62237;BME280;69163;48.778;2.308;2023-09-30T01:34:53;101879.13;;;19.43;44.53
62237;BME280;69163;48.778;2.308;2023-09-30T01:37:19;101871.32;;;19.45;44.50
62237;BME280;69163;48.778;2.308;2023-09-30T01:39:43;101856.98;;;19.43;44.46
62237;BME280;69163;48.778;2.308;2023-09-30T01:42:09;101852.78;;;19.59;44.57
62237;BME280;69163;48.778;2.308;2023-09-30T01:44:33;101850.98;;;19.28;44.67
62237;BME280;69163;48.778;2.308;2023-09-30T01:46:58;101845.50;;;19.34;44.57
62237;BME280;69163;48.778;2.308;2023-09-30T01:49:25;101835.25;;;19.30;44.60
62237;BME280;69163;48.778;2.308;2023-09-30T01:51:49;101839.24;;;19.36;44.49
62237;BME280;69163;48.778;2.308;2023-09-30T01:54:15;101841.89;;;19.13;44.47
62237;BME280;69163;48.778;2.308;2023-09-30T01:56:40;101841.02;;;19.40;44.40
62237;BME280;69163;48.778;2.308;2023-09-30T01:59:06;101841.97;;;19.33;44.54
62237;BME280;69163;48.778;2.308;2023-09-30T02:01:31;101834.01;;;19.32;44.59
62237;BME280;69163;48.778;2.308;2023-09-30T02:03:56;101832.63;;;19.27;44.73
62237;BME280;69163;48.778;2.308;2023-09-30T02:06:22;101839.58;;;19.31;44.68
62237;BME280;69163;48.778;2.308;2023-09-30T02:08:47;101842.51;;;19.22;44.79
62237;BME280;69163;48.778;2.308;2023-09-30T02:11:12;101842.49;;;19.22;44.78
62237;BME280;69163;48.778;2.308;2023-09-30T02:13:38;101846.08;;;19.25;44.73
62237;BME280;69163;48.778;2.308;2023-09-30T02:16:03;101849.50;;;19.25;44.68
62237;BME280;69163;48.778;2.308;2023-09-30T02:18:28;101851.02;;;19.28;44.59
62237;BME280;69163;48.778;2.308;2023-09-30T02:20:53;101847.06;;;19.30;44.51
62237;BME280;69163;48.778;2.308;2023-09-30T02:23:20;101842.89;;;19.33;44.43
62237;BME280;69163;48.778;2.308;2023-09-30T02:25:44;101844.09;;;19.34;44.40
62237;BME280;69163;48.778;2.308;2023-09-30T02:28:09;101847.81;;;19.27;44.51
62237;BME280;69163;48.778;2.308;2023-09-30T02:30:34;101853.66;;;19.24;44.55
62237;BME280;69163;48.778;2.308;2023-09-30T02:32:59;101853.14;;;19.27;44.50
62237;BME280;69163;48.778;2.308;2023-09-30T02:35:25;101848.39;;;19.03;44.47
62237;BME280;69163;48.778;2.308;2023-09-30T02:37:50;101840.34;;;19.29;44.41
62237;BME280;69163;48.778;2.308;2023-09-30T02:40:15;101837.12;;;19.30;44.35
62237;BME280;69163;48.778;2.308;2023-09-30T02:42:41;101838.32;;;19.29;44.32
62237;BME280;69163;48.778;2.308;2023-09-30T02:45:06;101837.49;;;19.29;44.32
62237;BME280;69163;48.778;2.308;2023-09-30T02:47:30;101830.00;;;19.22;44.40
62237;BME280;69163;48.778;2.308;2023-09-30T02:49:57;101828.80;;;19.21;44.40
62237;BME280;69163;48.778;2.308;2023-09-30T02:52:21;101834.77;;;19.28;44.33
62237;BME280;69163;48.778;2.308;2023-09-30T02:54:46;101840.31;;;19.75;44.31
62237;BME280;69163;48.778;2.308;2023-09-30T02:57:11;101844.73;;;19.70;44.37
62237;BME280;69163;48.778;2.308;2023-09-30T02:59:36;101849.59;;;19.46;44.35
62237;BME280;69163;48.778;2.308;2023-09-30T03:02:02;101849.97;;;19.64;44.39
62237;BME280;69163;48.778;2.308;2023-09-30T03:04:26;101854.97;;;19.20;44.31
62237;BME280;69163;48.778;2.308;2023-09-30T03:06:51;101862.68;;;19.26;44.23
62237;BME280;69163;48.778;2.308;2023-09-30T03:09:17;101864.36;;;19.28;44.21
62237;BME280;69163;48.778;2.308;2023-09-30T03:11:43;101867.09;;;19.29;44.14
62237;BME280;69163;48.778;2.308;2023-09-30T03:14:09;101867.19;;;19.00;44.58
62237;BME280;69163;48.778;2.308;2023-09-30T03:16:34;101865.25;;;19.02;44.57
62237;BME280;69163;48.778;2.308;2023-09-30T03:18:59;101865.31;;;19.04;44.59
62237;BME280;69163;48.778;2.308;2023-09-30T03:21:24;101870.68;;;19.09;44.50
62237;BME280;69163;48.778;2.308;2023-09-30T03:23:49;101869.25;;;19.01;44.72
62237;BME280;69163;48.778;2.308;2023-09-30T03:26:15;101868.72;;;19.66;46.00
62237;BME280;69163;48.778;2.308;2023-09-30T03:28:40;101875.44;;;19.53;46.05
62237;BME280;69163;48.778;2.308;2023-09-30T03:31:05;101880.32;;;19.79;46.12
62237;BME280;69163;48.778;2.308;2023-09-30T03:33:31;101877.87;;;19.06;46.41
62237;BME280;69163;48.778;2.308;2023-09-30T03:35:56;101873.23;;;19.33;46.51
62237;BME280;69163;48.778;2.308;2023-09-30T03:38:22;101876.62;;;19.35;46.42
62237;BME280;69163;48.778;2.308;2023-09-30T03:40:46;101884.09;;;19.35;46.51
62237;BME280;69163;48.778;2.308;2023-09-30T03:43:11;101890.40;;;19.54;46.56
62237;BME280;69163;48.778;2.308;2023-09-30T03:45:37;101894.22;;;19.77;46.54
62237;BME280;69163;48.778;2.308;2023-09-30T03:48:02;101891.83;;;19.51;46.50
62237;BME280;69163;48.778;2.308;2023-09-30T03:50:28;101884.12;;;19.28;46.47
62237;BME280;69163;48.778;2.308;2023-09-30T03:53:00;101873.90;;;19.50;46.47
62237;BME280;69163;48.778;2.308;2023-09-30T03:55:19;101873.93;;;19.26;46.49
62237;BME280;69163;48.778;2.308;2023-09-30T03:57:44;101878.40;;;19.26;46.45
62237;BME280;69163;48.778;2.308;2023-09-30T04:00:09;101876.26;;;19.23;46.46
62237;BME280;69163;48.778;2.308;2023-09-30T04:02:34;101863.32;;;19.25;46.36
62237;BME280;69163;48.778;2.308;2023-09-30T04:05:00;101859.65;;;19.24;46.30
62237;BME280;69163;48.778;2.308;2023-09-30T04:07:26;101860.24;;;19.22;46.31
62237;BME280;69163;48.778;2.308;2023-09-30T04:09:51;101854.06;;;19.42;46.27
62237;BME280;69163;48.778;2.308;2023-09-30T04:12:16;101848.29;;;19.17;46.20
62237;BME280;69163;48.778;2.308;2023-09-30T04:14:40;101851.29;;;19.20;46.20
62237;BME280;69163;48.778;2.308;2023-09-30T04:17:06;101842.79;;;19.35;46.30
62237;BME280;69163;48.778;2.308;2023-09-30T04:19:31;101834.08;;;19.02;46.46
62237;BME280;69163;48.778;2.308;2023-09-30T04:21:57;101824.90;;;18.97;46.51
62237;BME280;69163;48.778;2.308;2023-09-30T04:24:23;101819.83;;;18.92;46.55
62237;BME280;69163;48.778;2.308;2023-09-30T04:26:47;101819.26;;;18.94;46.46
62237;BME280;69163;48.778;2.308;2023-09-30T04:29:12;101815.46;;;18.95;46.36
62237;BME280;69163;48.778;2.308;2023-09-30T04:31:38;101819.26;;;19.21;46.29
62237;BME280;69163;48.778;2.308;2023-09-30T04:34:03;101824.29;;;18.95;46.24
62237;BME280;69163;48.778;2.308;2023-09-30T04:36:27;101818.55;;;18.86;46.36
62237;BME280;69163;48.778;2.308;2023-09-30T04:38:52;101812.44;;;19.05;46.35
62237;BME280;69163;48.778;2.308;2023-09-30T04:41:18;101804.92;;;18.79;46.38
62237;BME280;69163;48.778;2.308;2023-09-30T04:43:43;101807.35;;;18.83;46.28
62237;BME280;69163;48.778;2.308;2023-09-30T04:46:09;101816.11;;;18.88;46.18
62237;BME280;69163;48.778;2.308;2023-09-30T04:48:33;101831.20;;;18.82;46.20
62237;BME280;69163;48.778;2.308;2023-09-30T04:50:58;101846.06;;;18.75;46.26
62237;BME280;69163;48.778;2.308;2023-09-30T04:53:25;101852.66;;;18.78;46.17
62237;BME280;69163;48.778;2.308;2023-09-30T04:55:50;101842.18;;;18.76;46.17
62237;BME280;69163;48.778;2.308;2023-09-30T04:58:15;101837.70;;;19.03;46.07
62237;BME280;69163;48.778;2.308;2023-09-30T05:00:40;101844.65;;;18.77;46.09
62237;BME280;69163;48.778;2.308;2023-09-30T05:03:05;101847.84;;;19.03;46.03
62237;BME280;69163;48.778;2.308;2023-09-30T05:05:30;101846.99;;;18.81;45.97
62237;BME280;69163;48.778;2.308;2023-09-30T05:07:56;101836.51;;;19.25;46.02
62237;BME280;69163;48.778;2.308;2023-09-30T05:10:22;101833.99;;;19.31;45.84
62237;BME280;69163;48.778;2.308;2023-09-30T05:12:46;101833.02;;;18.80;45.84
62237;BME280;69163;48.778;2.308;2023-09-30T05:15:12;101836.54;;;18.77;45.83
62237;BME280;69163;48.778;2.308;2023-09-30T05:17:37;101831.02;;;18.81;45.75
62237;BME280;69163;48.778;2.308;2023-09-30T05:20:02;101831.88;;;18.99;45.79
62237;BME280;69163;48.778;2.308;2023-09-30T05:22:27;101836.71;;;18.58;45.66
62237;BME280;69163;48.778;2.308;2023-09-30T05:24:52;101844.88;;;18.66;45.88
62237;BME280;69163;48.778;2.308;2023-09-30T05:27:18;101838.42;;;18.72;45.76
62237;BME280;69163;48.778;2.308;2023-09-30T05:29:43;101840.34;;;18.71;45.75
62237;BME280;69163;48.778;2.308;2023-09-30T05:32:08;101846.20;;;18.73;45.68
62237;BME280;69163;48.778;2.308;2023-09-30T05:34:32;101852.91;;;18.74;45.60
62237;BME280;69163;48.778;2.308;2023-09-30T05:36:58;101856.93;;;18.76;45.53
62237;BME280;69163;48.778;2.308;2023-09-30T05:39:24;101863.40;;;18.82;45.42
62237;BME280;69163;48.778;2.308;2023-09-30T05:41:49;101859.14;;;19.10;45.33
62237;BME280;69163;48.778;2.308;2023-09-30T05:44:14;101856.95;;;19.00;45.42
62237;BME280;69163;48.778;2.308;2023-09-30T05:46:39;101865.39;;;18.77;45.42
62237;BME280;69163;48.778;2.308;2023-09-30T05:49:04;101866.37;;;18.85;45.62
62237;BME280;69163;48.778;2.308;2023-09-30T05:51:29;101865.14;;;19.06;45.64
62237;BME280;69163;48.778;2.308;2023-09-30T05:53:55;101858.41;;;19.09;45.58
62237;BME280;69163;48.778;2.308;2023-09-30T05:56:20;101848.34;;;19.00;45.72
62237;BME280;69163;48.778;2.308;2023-09-30T05:58:44;101843.87;;;18.58;45.57
62237;BME280;69163;48.778;2.308;2023-09-30T06:01:10;101841.99;;;18.56;45.53
62237;BME280;69163;48.778;2.308;2023-09-30T06:03:35;101840.33;;;18.59;45.44
62237;BME280;69163;48.778;2.308;2023-09-30T06:06:01;101840.00;;;19.09;45.40
62237;BME280;69163;48.778;2.308;2023-09-30T06:08:26;101828.69;;;18.58;45.42
62237;BME280;69163;48.778;2.308;2023-09-30T06:10:51;101834.42;;;18.55;45.46
62237;BME280;69163;48.778;2.308;2023-09-30T06:13:16;101839.78;;;18.98;45.48
62237;BME280;69163;48.778;2.308;2023-09-30T06:15:43;101842.25;;;18.54;45.39
62237;BME280;69163;48.778;2.308;2023-09-30T06:18:07;101844.22;;;18.48;45.46
62237;BME280;69163;48.778;2.308;2023-09-30T06:20:33;101841.93;;;18.83;45.27
62237;BME280;69163;48.778;2.308;2023-09-30T06:22:58;101842.16;;;19.05;45.24
62237;BME280;69163;48.778;2.308;2023-09-30T06:25:24;101851.28;;;18.66;45.08
62237;BME280;69163;48.778;2.308;2023-09-30T06:27:48;101858.81;;;19.02;45.26
62237;BME280;69163;48.778;2.308;2023-09-30T06:30:14;101852.79;;;18.81;45.19
62237;BME280;69163;48.778;2.308;2023-09-30T06:32:39;101843.18;;;18.57;45.20
62237;BME280;69163;48.778;2.308;2023-09-30T06:35:07;101838.11;;;19.00;45.25
62237;BME280;69163;48.778;2.308;2023-09-30T06:37:30;101850.46;;;18.53;45.19
62237;BME280;69163;48.778;2.308;2023-09-30T06:39:55;101868.19;;;18.61;45.10
62237;BME280;69163;48.778;2.308;2023-09-30T06:42:21;101874.50;;;18.65;45.00
62237;BME280;69163;48.778;2.308;2023-09-30T06:44:45;101874.90;;;19.07;45.00
62237;BME280;69163;48.778;2.308;2023-09-30T06:47:10;101878.81;;;18.64;44.94
62237;BME280;69163;48.778;2.308;2023-09-30T06:49:36;101882.16;;;19.08;44.95
62237;BME280;69163;48.778;2.308;2023-09-30T06:52:03;101877.39;;;19.06;44.97
62237;BME280;69163;48.778;2.308;2023-09-30T06:54:26;101873.62;;;18.55;45.03
62237;BME280;69163;48.778;2.308;2023-09-30T06:56:53;101882.27;;;19.03;45.01
62237;BME280;69163;48.778;2.308;2023-09-30T06:59:18;101883.61;;;18.81;44.93
62237;BME280;69163;48.778;2.308;2023-09-30T07:01:42;101878.63;;;18.79;44.95
62237;BME280;69163;48.778;2.308;2023-09-30T07:04:08;101878.23;;;18.85;44.84
62237;BME280;69163;48.778;2.308;2023-09-30T07:06:33;101875.63;;;18.60;44.81
62237;BME280;69163;48.778;2.308;2023-09-30T07:08:58;101872.61;;;18.65;44.73
62237;BME280;69163;48.778;2.308;2023-09-30T07:11:28;101871.04;;;18.60;44.77
62237;BME280;69163;48.778;2.308;2023-09-30T07:13:49;101874.52;;;18.59;44.78
62237;BME280;69163;48.778;2.308;2023-09-30T07:16:14;101881.48;;;19.05;44.82
62237;BME280;69163;48.778;2.308;2023-09-30T07:18:39;101883.29;;;18.77;44.88
62237;BME280;69163;48.778;2.308;2023-09-30T07:21:05;101878.55;;;18.73;44.91
62237;BME280;69163;48.778;2.308;2023-09-30T07:23:30;101881.95;;;19.02;44.84
62237;BME280;69163;48.778;2.308;2023-09-30T07:25:54;101879.06;;;19.05;44.79
62237;BME280;69163;48.778;2.308;2023-09-30T07:28:21;101876.81;;;18.86;44.67
62237;BME280;69163;48.778;2.308;2023-09-30T07:30:45;101874.67;;;18.86;44.65
62237;BME280;69163;48.778;2.308;2023-09-30T07:33:10;101874.66;;;18.89;44.59
62237;BME280;69163;48.778;2.308;2023-09-30T07:35:36;101869.45;;;19.09;44.62
62237;BME280;69163;48.778;2.308;2023-09-30T07:38:03;101864.82;;;18.61;44.62
62237;BME280;69163;48.778;2.308;2023-09-30T07:40:26;101863.67;;;18.60;44.62
62237;BME280;69163;48.778;2.308;2023-09-30T07:42:52;101862.39;;;18.84;44.58
62237;BME280;69163;48.778;2.308;2023-09-30T07:45:18;101861.80;;;18.84;44.63
62237;BME280;69163;48.778;2.308;2023-09-30T07:47:41;101864.85;;;18.85;44.62
62237;BME280;69163;48.778;2.308;2023-09-30T07:50:07;101865.05;;;18.53;44.69
62237;BME280;69163;48.778;2.308;2023-09-30T07:52:32;101870.59;;;19.00;44.72
62237;BME280;69163;48.778;2.308;2023-09-30T07:54:57;101875.07;;;18.58;44.65
62237;BME280;69163;48.778;2.308;2023-09-30T07:57:23;101876.06;;;18.58;44.59
62237;BME280;69163;48.778;2.308;2023-09-30T07:59:49;101878.34;;;18.57;44.60
62237;BME280;69163;48.778;2.308;2023-09-30T08:02:13;101877.01;;;19.03;44.62
62237;BME280;69163;48.778;2.308;2023-09-30T08:04:38;101875.59;;;18.72;44.71
62237;BME280;69163;48.778;2.308;2023-09-30T08:07:03;101882.53;;;18.98;44.73
62237;BME280;69163;48.778;2.308;2023-09-30T08:09:28;101884.89;;;18.72;44.73
62237;BME280;69163;48.778;2.308;2023-09-30T08:11:53;101890.13;;;18.76;44.69
62237;BME280;69163;48.778;2.308;2023-09-30T08:14:19;101895.61;;;18.97;44.71
62237;BME280;69163;48.778;2.308;2023-09-30T08:16:44;101899.34;;;18.50;44.70
62237;BME280;69163;48.778;2.308;2023-09-30T08:19:10;101901.39;;;18.71;44.76
62237;BME280;69163;48.778;2.308;2023-09-30T08:21:35;101897.10;;;18.73;44.69
62237;BME280;69163;48.778;2.308;2023-09-30T08:24:01;101901.18;;;18.98;44.69
62237;BME280;69163;48.778;2.308;2023-09-30T08:26:26;101901.35;;;18.74;44.66
62237;BME280;69163;48.778;2.308;2023-09-30T08:28:50;101910.78;;;18.93;44.72
62237;BME280;69163;48.778;2.308;2023-09-30T08:31:15;101914.48;;;18.97;44.71
62237;BME280;69163;48.778;2.308;2023-09-30T08:33:40;101907.50;;;18.71;44.71
62237;BME280;69163;48.778;2.308;2023-09-30T08:36:06;101902.86;;;18.50;44.67
62237;BME280;69163;48.778;2.308;2023-09-30T08:38:31;101899.21;;;18.49;44.70
62237;BME280;69163;48.778;2.308;2023-09-30T08:40:56;101899.74;;;18.96;44.71
62237;BME280;69163;48.778;2.308;2023-09-30T08:43:23;101897.05;;;18.73;44.66
62237;BME280;69163;48.778;2.308;2023-09-30T08:45:48;101900.11;;;19.01;44.59
62237;BME280;69163;48.778;2.308;2023-09-30T08:48:12;101908.74;;;18.70;44.67
62237;BME280;69163;48.778;2.308;2023-09-30T08:50:39;101908.85;;;18.93;44.68
62237;BME280;69163;48.778;2.308;2023-09-30T08:53:02;101909.33;;;18.95;44.69
62237;BME280;69163;48.778;2.308;2023-09-30T08:55:27;101916.41;;;18.72;44.72
62237;BME280;69163;48.778;2.308;2023-09-30T08:57:52;101924.79;;;18.73;44.70
62237;BME280;69163;48.778;2.308;2023-09-30T09:00:18;101923.12;;;19.01;44.63
62237;BME280;69163;48.778;2.308;2023-09-30T09:02:43;101919.34;;;19.03;44.60
62237;BME280;69163;48.778;2.308;2023-09-30T09:05:09;101920.66;;;18.76;44.61
62237;BME280;69163;48.778;2.308;2023-09-30T09:07:34;101918.61;;;18.52;44.57
62237;BME280;69163;48.778;2.308;2023-09-30T09:10:03;101916.58;;;18.70;44.66
62237;BME280;69163;48.778;2.308;2023-09-30T09:12:24;101920.98;;;18.98;44.59
62237;BME280;69163;48.778;2.308;2023-09-30T09:14:48;101930.40;;;18.96;44.65
62237;BME280;69163;48.778;2.308;2023-09-30T09:17:14;101927.89;;;19.15;44.72
62237;BME280;69163;48.778;2.308;2023-09-30T09:19:40;101920.80;;;18.45;44.70
62237;BME280;69163;48.778;2.308;2023-09-30T09:22:05;101915.03;;;18.47;44.65
62237;BME280;69163;48.778;2.308;2023-09-30T09:24:32;101907.14;;;18.68;44.71
62237;BME280;69163;48.778;2.308;2023-09-30T09:27:05;101905.29;;;18.43;44.70
62237;BME280;69163;48.778;2.308;2023-09-30T09:29:26;101907.14;;;18.67;44.65
62237;BME280;69163;48.778;2.308;2023-09-30T09:31:48;101900.39;;;18.66;44.67
62237;BME280;69163;48.778;2.308;2023-09-30T09:34:14;101893.69;;;18.67;44.62
62237;BME280;69163;48.778;2.308;2023-09-30T09:36:40;101893.92;;;18.91;44.66
62237;BME280;69163;48.778;2.308;2023-09-30T09:39:03;101901.25;;;18.89;44.75
62237;BME280;69163;48.778;2.308;2023-09-30T09:41:28;101913.24;;;18.64;44.73
62237;BME280;69163;48.778;2.308;2023-09-30T09:43:53;101913.45;;;18.67;44.70
62237;BME280;69163;48.778;2.308;2023-09-30T09:46:19;101919.70;;;18.91;44.72
62237;BME280;69163;48.778;2.308;2023-09-30T09:48:45;101920.11;;;18.87;44.77
62237;BME280;69163;48.778;2.308;2023-09-30T09:51:09;101916.71;;;18.88;44.71
62237;BME280;69163;48.778;2.308;2023-09-30T09:53:35;101916.41;;;18.63;44.69
62237;BME280;69163;48.778;2.308;2023-09-30T09:56:00;101921.12;;;18.84;44.73
62237;BME280;69163;48.778;2.308;2023-09-30T09:58:26;101920.97;;;18.27;44.83
62237;BME280;69163;48.778;2.308;2023-09-30T10:00:50;101918.79;;;18.42;45.02
62237;BME280;69163;48.778;2.308;2023-09-30T10:03:15;101914.01;;;18.64;47.28
62237;BME280;69163;48.778;2.308;2023-09-30T10:05:40;101914.38;;;18.48;47.98
62237;BME280;69163;48.778;2.308;2023-09-30T10:08:08;101905.85;;;19.00;47.99
62237;BME280;69163;48.778;2.308;2023-09-30T10:10:31;101891.96;;;19.00;48.00
62237;BME280;69163;48.778;2.308;2023-09-30T10:12:57;101882.09;;;19.21;48.12
62237;BME280;69163;48.778;2.308;2023-09-30T10:15:36;101880.03;;;18.92;48.32
62237;BME280;69163;48.778;2.308;2023-09-30T10:17:57;101873.85;;;18.86;48.44
62237;BME280;69163;48.778;2.308;2023-09-30T10:20:11;101871.25;;;18.72;48.47
62237;BME280;69163;48.778;2.308;2023-09-30T10:22:37;101876.80;;;18.40;48.75
62237;BME280;69163;48.778;2.308;2023-09-30T10:27:33;101888.52;;;18.53;48.78
62237;BME280;69163;48.778;2.308;2023-09-30T10:29:56;101887.72;;;18.60;48.68
62237;BME280;69163;48.778;2.308;2023-09-30T10:32:18;101889.80;;;18.60;48.81
62237;BME280;69163;48.778;2.308;2023-09-30T10:34:48;101884.74;;;19.24;48.62
62237;BME280;69163;48.778;2.308;2023-09-30T10:37:21;101878.35;;;19.12;48.50
62237;BME280;69163;48.778;2.308;2023-09-30T10:41:58;101870.03;;;19.06;48.23
62237;BME280;69163;48.778;2.308;2023-09-30T10:44:33;101869.63;;;19.09;48.23
62237;BME280;69163;48.778;2.308;2023-09-30T10:46:50;101867.93;;;19.13;48.10
62237;BME280;69163;48.778;2.308;2023-09-30T10:51:40;101874.29;;;19.20;48.12
62237;BME280;69163;48.778;2.308;2023-09-30T10:54:05;101874.29;;;19.20;48.22
62237;BME280;69163;48.778;2.308;2023-09-30T10:56:33;101868.56;;;19.16;48.28
62237;BME280;69163;48.778;2.308;2023-09-30T10:58:55;101865.06;;;19.15;48.31
62237;BME280;69163;48.778;2.308;2023-09-30T11:01:22;101866.75;;;19.19;48.25
62237;BME280;69163;48.778;2.308;2023-09-30T11:03:46;101864.09;;;19.14;48.33
62237;BME280;69163;48.778;2.308;2023-09-30T11:06:13;101866.61;;;19.33;48.09
62237;BME280;69163;48.778;2.308;2023-09-30T11:08:39;101860.97;;;19.42;47.88
62237;BME280;69163;48.778;2.308;2023-09-30T11:11:01;101856.14;;;19.46;47.86
62237;BME280;69163;48.778;2.308;2023-09-30T11:13:32;101851.58;;;19.47;47.83
62237;BME280;69163;48.778;2.308;2023-09-30T11:15:59;101852.46;;;19.44;47.97
62237;BME280;69163;48.778;2.308;2023-09-30T11:18:17;101849.97;;;19.49;47.80
62237;BME280;69163;48.778;2.308;2023-09-30T11:20:42;101849.06;;;19.57;47.62
62237;BME280;69163;48.778;2.308;2023-09-30T11:23:07;101852.11;;;19.32;47.69
62237;BME280;69163;48.778;2.308;2023-09-30T11:25:35;101854.93;;;19.55;47.41
62237;BME280;69163;48.778;2.308;2023-09-30T11:30:23;101861.02;;;19.74;47.35
62237;BME280;69163;48.778;2.308;2023-09-30T11:32:57;101862.66;;;19.71;47.38
62237;BME280;69163;48.778;2.308;2023-09-30T11:35:22;101858.98;;;19.91;47.14
62237;BME280;69163;48.778;2.308;2023-09-30T11:37:42;101850.42;;;19.89;47.08
62237;BME280;69163;48.778;2.308;2023-09-30T11:40:11;101846.64;;;19.86;47.15
62237;BME280;69163;48.778;2.308;2023-09-30T11:42:28;101843.43;;;19.85;46.89
62237;BME280;69163;48.778;2.308;2023-09-30T11:44:54;101844.04;;;20.29;46.62
62237;BME280;69163;48.778;2.308;2023-09-30T11:47:29;101834.71;;;20.44;46.38
62237;BME280;69163;48.778;2.308;2023-09-30T11:49:44;101834.76;;;20.55;46.15
62237;BME280;69163;48.778;2.308;2023-09-30T11:52:11;101837.13;;;20.68;45.86
62237;BME280;69163;48.778;2.308;2023-09-30T11:54:36;101833.37;;;20.78;45.68
62237;BME280;69163;48.778;2.308;2023-09-30T11:57:01;101838.20;;;20.39;45.46
62237;BME280;69163;48.778;2.308;2023-09-30T11:59:25;101832.33;;;20.54;45.22
62237;BME280;69163;48.778;2.308;2023-09-30T12:01:51;101826.42;;;21.08;45.08
62237;BME280;69163;48.778;2.308;2023-09-30T12:04:16;101820.21;;;20.89;44.96
62237;BME280;69163;48.778;2.308;2023-09-30T12:06:40;101819.32;;;20.72;44.81
62237;BME280;69163;48.778;2.308;2023-09-30T12:09:05;101820.44;;;20.76;44.67
62237;BME280;69163;48.778;2.308;2023-09-30T12:11:31;101821.90;;;20.80;44.60
62237;BME280;69163;48.778;2.308;2023-09-30T12:13:56;101813.19;;;21.21;44.68
62237;BME280;69163;48.778;2.308;2023-09-30T12:16:22;101809.81;;;20.70;44.69
62237;BME280;69163;48.778;2.308;2023-09-30T12:18:46;101805.69;;;21.12;44.85
62237;BME280;69163;48.778;2.308;2023-09-30T12:21:12;101801.19;;;20.65;44.81
62237;BME280;69163;48.778;2.308;2023-09-30T12:23:37;101793.63;;;21.09;44.83
62237;BME280;69163;48.778;2.308;2023-09-30T12:26:02;101787.80;;;21.09;44.80
62237;BME280;69163;48.778;2.308;2023-09-30T12:28:27;101783.07;;;20.62;44.76
62237;BME280;69163;48.778;2.308;2023-09-30T12:30:52;101773.78;;;20.62;44.69
62237;BME280;69163;48.778;2.308;2023-09-30T12:33:17;101769.25;;;20.84;44.73
62237;BME280;69163;48.778;2.308;2023-09-30T12:35:43;101766.52;;;20.87;44.70
62237;BME280;69163;48.778;2.308;2023-09-30T12:38:08;101770.28;;;20.82;44.74
62237;BME280;69163;48.778;2.308;2023-09-30T12:40:33;101770.18;;;20.56;44.77
62237;BME280;69163;48.778;2.308;2023-09-30T12:42:58;101764.91;;;20.53;44.82
62237;BME280;69163;48.778;2.308;2023-09-30T12:45:25;101767.86;;;20.46;44.95
62237;BME280;69163;48.778;2.308;2023-09-30T12:47:49;101773.27;;;20.65;45.03